• Join FlightAware (Why Join?)
  • Login
  • US Flag 
05:00AM EDT


 

Airport Tracker/Info


-or-


 

Live Flight TrackerFlight Track Log ✈ BJS612 ✈ 02-Jul-2013 ✈ KHPN - KLUK

Flight Track Log - Related Links

Times and Time Zones

All times are in EDT time to prevent confusion due to time zone crossing. See the BJS612 flight status page for this flight to view local times or setup timezone preferences in your user account.

Time Position Orientation Groundspeed Altitude Reporting Facility
EDT Latitude Longitude Course Direction KTS MPH feet Rate Location/Type
07:25AM 41.0333 -73.7167 304° West 185 213 2,700  Level New York TRACON
07:26AM 41.0667 -73.7833 304° West 222 255 5,400 2,760 Climbing New York TRACON
07:27AM 41.0667 -73.8500 270° West 239 275 8,300 2,820 Climbing New York TRACON
07:28AM 41.0333 -73.9333 242° Southwest 264 304 10,800 3,000 Climbing New York TRACON
07:29AM 41.0000 -74.0333 246° West 318 366 14,000 2,100 Climbing New York TRACON
07:30AM 40.9667 -74.1833 254° West 377 434 15,100 1,080 Climbing New York TRACON
07:31AM 40.9667 -74.3167 270° West 398 458 16,200 900 Climbing New York TRACON
07:32AM 40.9667 -74.4667 270° West 395 455 17,000 360 Climbing New York TRACON
07:33AM 40.9500 -74.6167 262° West 401 461 17,000  Level New York TRACON
07:34AM 40.9442 -74.6994 265° West 399 459 17,000  Level New York Center
07:35AM 40.9378 -74.8308 266° West 413 475 17,000  Level New York Center
07:36AM 40.9278 -74.9950 265° West 413 475 17,000 720 Level New York Center
07:37AM 40.9214 -75.1100 266° West 401 461 18,500 2,100 Climbing New York Center
07:38AM 40.8969 -75.2622 258° West 390 449 21,300 2,220 Climbing New York Center
07:39AM 40.8689 -75.3947 254° West 390 449 23,100 1,320 Climbing New York Center
07:40AM 40.8342 -75.5406 253° West 397 457 24,000 1,560 Climbing New York Center
07:41AM 40.7967 -75.6914 252° West 421 484 26,200 2,580 Climbing New York Center
07:42AM 40.7647 -75.8508 255° West 422 486 29,300 2,640 Climbing New York Center
07:43AM 40.7544 -75.9953 265° West 416 479 31,500 1,920 Climbing New York Center
07:44AM 40.7456 -76.1453 266° West 411 473 33,100 1,200 Climbing New York Center
07:45AM 40.7344 -76.2978 265° West 411 473 34,000 420 Climbing New York Center
07:46AM 40.7228 -76.4556 264° West 423 487 34,000  Level New York Center
07:47AM 40.7092 -76.6078 263° West 428 493 34,000  Level New York Center
07:48AM 40.6992 -76.7631 265° West 428 493 34,000  Level New York Center
07:49AM 40.6850 -76.9206 263° West 428 493 34,000 60 Level New York Center
07:50AM 40.6747 -77.0756 265° West 428 493 34,200 1,080 Climbing New York Center
07:51AM 40.6603 -77.2278 263° West 428 493 36,200 1,860 Climbing New York Center
07:52AM 40.6511 -77.3553 265° West 416 479 38,000 1,680 Climbing New York Center
07:53AM 40.6389 -77.4964 264° West 398 458 39,700 600 Climbing New York Center
07:55AM 40.6094 -77.8369 264° West 401 461 40,000 60 Climbing Cleveland Center
07:56AM 40.5961 -77.9797 263° West 401 461 40,000  Level Cleveland Center
07:57AM 40.5828 -78.1281 263° West 406 467 40,000  Level Cleveland Center
07:58AM 40.5692 -78.2706 263° West 406 467 40,000  Level Cleveland Center
07:59AM 40.5572 -78.4133 264° West 406 467 40,000  Level Cleveland Center
08:00AM 40.5433 -78.5586 263° West 406 467 40,000  Level Cleveland Center
08:01AM 40.5269 -78.6983 261° West 406 467 40,000  Level Cleveland Center
08:02AM 40.5147 -78.8433 264° West 406 467 40,000  Level Cleveland Center
08:03AM 40.5042 -78.9856 264° West 406 467 40,000  Level Cleveland Center
08:04AM 40.4936 -79.1278 264° West 406 467 40,000  Level Cleveland Center
08:05AM 40.4828 -79.2672 264° West 406 467 40,000  Level Cleveland Center
08:06AM 40.4717 -79.4042 264° West 393 452 40,000  Level Cleveland Center
08:07AM 40.4606 -79.5461 264° West 388 447 40,000  Level Cleveland Center
08:08AM 40.4472 -79.6828 263° West 388 447 40,000  Level Cleveland Center
08:09AM 40.4358 -79.8219 264° West 388 447 40,000  Level Cleveland Center
08:10AM 40.4239 -79.9422 263° West 388 447 40,000 -60 Level Cleveland Center
08:11AM 40.4122 -80.1086 265° West 399 459 39,900  Descending Cleveland Center
08:12AM 40.3939 -80.2422 260° West 400 460 40,000 -420 Climbing Cleveland Center
08:13AM 40.3839 -80.3842 265° West 394 453 39,100 -1,200 Descending Cleveland Center
08:14AM 40.3714 -80.5231 263° West 389 448 37,700 -1,320 Descending Cleveland Center
08:15AM 40.3569 -80.6703 263° West 394 453 36,500 -900 Descending Cleveland Center
08:16AM 40.3419 -80.8175 262° West 400 460 36,000 -780 Descending Cleveland Center
08:18AM 40.3139 -81.0756 262° West 422 486 34,400 -780 Descending Indianapolis Center
08:19AM 40.2975 -81.2314 262° West 426 490 34,000 -240 Descending Indianapolis Center
08:20AM 40.2822 -81.3847 263° West 421 484 34,000  Level Indianapolis Center
08:21AM 40.2658 -81.5392 262° West 424 488 34,000  Level Indianapolis Center
08:22AM 40.2500 -81.6936 262° West 424 488 34,000 -360 Level Indianapolis Center
08:23AM 40.2211 -81.8447 256° West 419 482 33,300 -540 Descending Indianapolis Center
08:24AM 40.1800 -81.9878 249° West 417 480 32,900 -300 Descending Indianapolis Center
08:25AM 40.1397 -82.1292 250° West 414 476 32,800 -480 Descending Indianapolis Center
08:26AM 40.1008 -82.2728 251° West 415 478 32,000 -420 Descending Indianapolis Center
08:27AM 40.0603 -82.4181 250° West 419 482 32,000 -60 Level Indianapolis Center
08:28AM 40.0186 -82.5631 249° West 422 486 31,900 -960 Descending Indianapolis Center
08:29AM 39.9711 -82.7333 250° West 425 489 30,100 -2,160 Descending Indianapolis Center
08:30AM 39.9289 -82.8797 249° West 426 490 27,500 -2,580 Descending Indianapolis Center
08:31AM 39.8861 -83.0297 250° West 434 499 24,900 -2,520 Descending Indianapolis Center
08:32AM 39.8433 -83.1772 249° West 433 498 22,400 -2,100 Descending Indianapolis Center
08:33AM 39.8050 -83.3125 250° West 405 466 20,700 -1,800 Descending Indianapolis Center
08:34AM 39.7667 -83.4408 249° West 373 429 18,700 -1,920 Descending Indianapolis Center
08:35AM 39.7242 -83.5678 247° West 372 428 16,800 -1,920 Descending Indianapolis Center
08:36AM 39.6694 -83.6786 237° Southwest 362 417 14,800 -1,800 Descending Indianapolis Center
08:37AM 39.6169 -83.7889 238° Southwest 357 411 13,100 -1,500 Descending Indianapolis Center
08:38AM 39.5650 -83.8958 238° Southwest 348 400 11,800 -1,080 Descending Indianapolis Center
08:39AM 39.5147 -84.0017 238° Southwest 345 397 11,000 -600 Descending Indianapolis Center
08:40AM 39.4597 -84.0997 234° Southwest 335 386 10,600 -720 Descending Indianapolis Center
08:41AM 39.4047 -84.1711 225° Southwest 280 322 9,600 -1,260 Descending Indianapolis Center
08:42AM 39.3750 -84.2539 245° Southwest 270 311 8,100 -1,860 Descending Indianapolis Center
08:43AM 39.3469 -84.3283 244° Southwest 258 297 5,800 -2,100 Descending Indianapolis Center
08:44AM 39.2717 -84.3325 182° South 241 277 3,900 -1,500 Descending Indianapolis Center
08:45AM 39.2153 -84.3550 197° South 223 257 2,800 -960 Descending Indianapolis Center
08:47AM 39.1333 -84.4000 203° Southwest 125 144 1,200 -840 Descending Cincinnati TRACON
08:49AM 39.1033 -84.4186 223° Southwest  Level Estimated
08:56AM 39.1000 -84.4167 57° Northeast  Level FlightAware Approximate